Time;durP1;ratioP1;P1;durP2;ratioP2;P2;SDS_P1;SDS_P2;PMS_P1;PMS_P2;Temp;Humidity;BMP_temperature;BMP_pressure;BME280_temperature;BME280_humidity;BME280_pressure;Samples;Min_cycle;Max_cycle;Signal;HPM_P1;HPM_P2
2021/12/30 00:00:48;;;;;;;49.30;29.43;;;;;;;1.44;90.92;100204.45;1414016;87;21526;-86
2021/12/30 00:03:15;;;;;;;52.30;29.90;;;;;;;1.41;90.67;100212.47;1413426;87;21628;-86
2021/12/30 00:05:48;;;;;;;47.90;30.30;;;;;;;1.35;90.55;100218.90;1414268;86;21446;-85
2021/12/30 00:08:15;;;;;;;47.57;27.87;;;;;;;1.33;90.54;100219.01;1413927;86;21618;-85
2021/12/30 00:10:43;;;;;;;44.70;26.47;;;;;;;1.31;90.44;100220.86;1413589;86;21483;-85
2021/12/30 00:13:11;;;;;;;47.90;29.63;;;;;;;1.26;90.50;100228.13;1413682;87;21598;-85
2021/12/30 00:15:38;;;;;;;53.40;33.93;;;;;;;1.16;90.47;100228.80;1413699;86;21580;-86
2021/12/30 00:18:09;;;;;;;51.40;30.83;;;;;;;1.09;90.83;100238.73;1413122;86;21616;-86
2021/12/30 00:20:37;;;;;;;50.73;29.60;;;;;;;1.06;91.10;100246.73;1413587;87;21650;-85
2021/12/30 00:23:06;;;;;;;48.27;28.53;;;;;;;1.10;91.16;100253.45;1413771;86;22239;-86
2021/12/30 00:25:39;;;;;;;53.37;31.30;;;;;;;1.15;91.41;100256.60;1411060;87;21513;-86
2021/12/30 00:28:12;;;;;;;48.47;28.67;;;;;;;1.20;91.47;100258.48;1370156;89;21611;-86
2021/12/30 00:30:40;;;;;;;51.80;32.10;;;;;;;1.24;91.47;100259.98;1409271;86;21623;-88
2021/12/30 00:33:07;;;;;;;52.07;31.10;;;;;;;1.25;91.29;100262.12;1409327;87;22933;-88
2021/12/30 00:35:36;;;;;;;49.87;30.83;;;;;;;1.27;91.25;100270.70;1411259;86;22389;-84
2021/12/30 00:38:05;;;;;;;51.20;29.20;;;;;;;1.25;91.08;100279.07;1402193;87;21541;-90
2021/12/30 00:40:35;;;;;;;49.20;29.47;;;;;;;1.25;91.23;100292.94;1398480;88;21446;-89
2021/12/30 00:43:03;;;;;;;53.83;30.50;;;;;;;1.26;91.27;100301.59;1397034;88;21419;-90
2021/12/30 00:45:33;;;;;;;51.63;31.70;;;;;;;1.25;91.24;100302.06;1412964;85;21714;-89
2021/12/30 00:48:02;;;;;;;52.17;31.60;;;;;;;1.31;91.38;100294.34;1415141;87;21549;-89
2021/12/30 00:50:30;;;;;;;52.47;30.93;;;;;;;1.35;91.48;100292.78;1384976;87;21155;-87
2021/12/30 00:52:59;;;;;;;59.87;32.63;;;;;;;1.43;91.58;100295.38;1402437;86;21486;-88
2021/12/30 00:55:26;;;;;;;54.50;33.27;;;;;;;1.42;91.25;100303.67;1413944;86;21491;-88
2021/12/30 00:57:54;;;;;;;55.67;31.77;;;;;;;1.38;91.01;100315.67;1413616;87;21775;-88
2021/12/30 01:00:22;;;;;;;57.20;34.47;;;;;;;1.38;91.02;100305.23;1403656;87;22589;-85
2021/12/30 01:02:51;;;;;;;55.80;32.77;;;;;;;1.41;91.14;100318.09;1376943;89;22623;-86
2021/12/30 01:05:20;;;;;;;57.63;32.60;;;;;;;1.43;91.06;100329.28;1384002;89;21606;-89
2021/12/30 01:07:47;;;;;;;58.20;32.50;;;;;;;1.44;91.01;100336.16;1404458;88;21572;-89
2021/12/30 01:10:17;;;;;;;55.03;33.27;;;;;;;1.46;90.99;100335.61;1404398;87;21692;-87
2021/12/30 01:12:45;;;;;;;52.33;31.05;;;;;;;1.47;90.87;100334.23;1415074;87;23074;-84
2021/12/30 01:15:17;;;;;;;53.73;29.33;;;;;;;1.50;90.95;100343.65;1380071;89;21285;-84
2021/12/30 01:17:59;;;;;;;52.07;30.10;;;;;;;1.53;90.97;100344.77;1401310;87;21802;-84
2021/12/30 01:20:22;;;;;;;55.43;31.83;;;;;;;1.57;91.01;100341.03;1428203;85;21818;-85
2021/12/30 01:22:51;;;;;;;53.07;29.27;;;;;;;1.61;91.00;100345.13;1427732;86;21695;-85
2021/12/30 01:25:19;;;;;;;52.80;30.00;;;;;;;1.65;90.92;100346.63;1407690;87;22635;-85
2021/12/30 01:27:47;;;;;;;52.03;27.93;;;;;;;1.67;90.69;100340.86;1428022;86;23335;-86
2021/12/30 01:30:18;;;;;;;49.30;29.13;;;;;;;1.69;90.62;100341.59;1419444;85;22770;-85
2021/12/30 01:32:46;;;;;;;46.47;28.43;;;;;;;1.70;90.49;100349.81;1426946;86;21767;-85
2021/12/30 01:35:21;;;;;;;53.67;27.63;;;;;;;1.69;90.37;100353.33;1422706;85;21366;-85
2021/12/30 01:37:43;;;;;;;41.57;24.87;;;;;;;1.67;90.19;100347.83;1420406;86;23028;-85
2021/12/30 01:40:14;;;;;;;36.67;23.07;;;;;;;1.64;90.13;100342.36;1405270;87;21588;-87
2021/12/30 01:42:41;;;;;;;43.33;23.52;;;;;;;1.64;90.24;100340.19;1413368;87;21858;-84
2021/12/30 01:45:10;;;;;;;39.60;23.57;;;;;;;1.65;90.21;100347.94;1407463;86;21748;-84
2021/12/30 01:47:42;;;;;;;41.20;24.23;;;;;;;1.65;90.23;100351.84;1396545;88;21721;-84
2021/12/30 01:50:07;;;;;;;46.03;26.07;;;;;;;1.67;90.28;100364.34;1395689;88;21604;-85
2021/12/30 01:52:34;;;;;;;46.10;25.67;;;;;;;1.65;89.92;100362.75;1397009;87;21676;-85
2021/12/30 01:55:03;;;;;;;45.87;25.30;;;;;;;1.62;90.04;100357.25;1395864;88;22438;-85
2021/12/30 01:57:31;;;;;;;45.30;27.70;;;;;;;1.63;90.23;100381.09;1395145;88;21544;-84
2021/12/30 01:59:58;;;;;;;47.03;25.47;;;;;;;1.63;90.16;100381.09;1396084;88;21670;-85
2021/12/30 02:02:25;;;;;;;48.83;28.30;;;;;;;1.62;90.08;100372.91;1395669;88;21551;-85
2021/12/30 02:04:53;;;;;;;51.83;28.67;;;;;;;1.63;89.97;100377.65;1396472;88;21817;-85
2021/12/30 02:07:20;;;;;;;44.50;26.90;;;;;;;1.59;89.58;100380.91;1394615;88;22578;-85
2021/12/30 02:09:47;;;;;;;48.10;27.73;;;;;;;1.57;89.69;100388.81;1412633;86;21727;-86
2021/12/30 02:12:20;;;;;;;47.47;26.93;;;;;;;1.54;89.56;100387.70;1395731;87;21589;-85
2021/12/30 02:14:47;;;;;;;55.07;31.27;;;;;;;1.52;89.89;100380.89;1395696;88;21521;-85
2021/12/30 02:17:14;;;;;;;49.37;28.40;;;;;;;1.52;89.94;100376.50;1394557;87;21816;-85
2021/12/30 02:19:42;;;;;;;56.57;29.00;;;;;;;1.54;89.90;100385.56;1378775;89;22548;-85
2021/12/30 02:22:09;;;;;;;48.03;28.00;;;;;;;1.54;89.88;100386.87;1396153;88;21582;-84
2021/12/30 02:24:45;;;;;;;52.40;28.97;;;;;;;1.52;89.78;100385.64;1396551;88;21698;-85
2021/12/30 02:27:12;;;;;;;48.93;28.20;;;;;;;1.50;89.78;100386.69;1395694;88;21727;-83
2021/12/30 02:29:39;;;;;;;49.30;28.67;;;;;;;1.44;89.69;100389.19;1395826;88;21685;-83
2021/12/30 02:32:07;;;;;;;46.07;26.33;;;;;;;1.41;89.91;100391.11;1395564;88;22945;-83
2021/12/30 02:34:36;;;;;;;56.33;30.27;;;;;;;1.42;89.91;100388.43;1396105;88;21786;-83
2021/12/30 02:37:03;;;;;;;53.33;29.13;;;;;;;1.46;90.10;100389.91;1396290;86;22417;-82
2021/12/30 02:39:31;;;;;;;50.60;27.90;;;;;;;1.52;90.22;100400.45;1395888;88;21508;-84
2021/12/30 02:41:58;;;;;;;52.87;29.00;;;;;;;1.55;90.33;100410.70;1396326;88;21655;-83
2021/12/30 02:44:26;;;;;;;49.70;26.77;;;;;;;1.58;90.21;100410.52;1395614;88;21668;-84
2021/12/30 02:46:54;;;;;;;49.27;27.30;;;;;;;1.56;90.00;100408.02;1411461;86;21622;-85
2021/12/30 02:49:21;;;;;;;47.87;27.80;;;;;;;1.58;90.04;100407.91;1413230;87;21744;-85
2021/12/30 02:51:49;;;;;;;51.37;29.03;;;;;;;1.55;89.98;100411.57;1407107;87;21576;-85
2021/12/30 02:54:17;;;;;;;46.93;25.77;;;;;;;1.57;90.01;100411.46;1411231;87;21625;-84
2021/12/30 02:56:47;;;;;;;54.30;27.23;;;;;;;1.60;90.31;100406.06;1411406;87;21726;-84
2021/12/30 02:59:18;;;;;;;52.37;28.07;;;;;;;1.63;90.14;100404.58;1411231;87;21577;-85
2021/12/30 03:01:46;;;;;;;56.40;30.53;;;;;;;1.64;90.06;100401.49;1411330;87;21697;-84
2021/12/30 03:04:13;;;;;;;61.93;29.53;;;;;;;1.65;90.10;100410.55;1411221;87;21755;-84
2021/12/30 03:06:41;;;;;;;52.53;29.47;;;;;;;1.67;90.14;100418.27;1383295;88;21859;-84
2021/12/30 03:09:08;;;;;;;58.87;30.83;;;;;;;1.69;90.13;100426.38;1411229;87;21659;-84
2021/12/30 03:11:36;;;;;;;55.17;28.10;;;;;;;1.69;89.91;100423.77;1382681;89;21727;-84
2021/12/30 03:14:03;;;;;;;62.53;32.87;;;;;;;1.66;89.61;100422.66;1407123;87;22541;-84
2021/12/30 03:16:35;;;;;;;59.20;32.60;;;;;;;1.67;89.64;100432.18;1382192;89;22461;-84
2021/12/30 03:19:04;;;;;;;65.73;34.23;;;;;;;1.66;89.61;100438.31;1392331;88;22991;-84
2021/12/30 03:21:32;;;;;;;64.60;33.60;;;;;;;1.68;89.67;100442.98;1371749;90;21704;-84
2021/12/30 03:24:02;;;;;;;66.63;32.67;;;;;;;1.61;89.40;100441.64;1392289;88;21539;-84
2021/12/30 03:26:31;;;;;;;57.27;27.13;;;;;;;1.56;89.45;100441.09;1373508;90;22578;-84
2021/12/30 03:28:59;;;;;;;69.90;32.97;;;;;;;1.47;89.33;100442.95;1393693;88;21493;-84
2021/12/30 03:31:27;;;;;;;73.80;34.67;;;;;;;1.43;89.48;100451.86;1393985;88;22497;-84
2021/12/30 03:33:55;;;;;;;80.37;34.73;;;;;;;1.35;89.70;100460.98;1393599;88;21728;-84
2021/12/30 03:36:22;;;;;;;81.70;37.03;;;;;;;1.33;90.10;100455.47;1393916;88;21647;-85
2021/12/30 03:38:53;;;;;;;87.87;36.90;;;;;;;1.25;90.28;100457.67;1393538;88;21645;-84
2021/12/30 03:41:24;;;;;;;90.87;40.87;;;;;;;1.25;90.28;100457.67;1402872;87;23311;-84
2021/12/30 03:43:52;;;;;;;;;;;;;;;1.11;90.52;100448.02;1417757;87;21615;-83
2021/12/30 03:46:19;;;;;;;103.93;44.50;;;;;;;1.01;91.09;100449.48;1415714;86;20259;-82
2021/12/30 03:48:46;;;;;;;96.83;43.03;;;;;;;0.95;91.06;100449.80;1415534;87;21475;-83
2021/12/30 03:51:21;;;;;;;89.93;42.87;;;;;;;0.94;91.44;100454.64;1427082;87;21604;-82
2021/12/30 03:53:49;;;;;;;87.57;38.10;;;;;;;0.87;91.95;100457.59;1403572;87;21828;-83
2021/12/30 03:56:20;;;;;;;89.43;40.13;;;;;;;0.77;92.30;100467.30;1393658;88;21677;-83
2021/12/30 03:58:48;;;;;;;77.13;36.23;;;;;;;0.69;92.74;100478.13;1393437;88;21613;-83
2021/12/30 04:01:20;;;;;;;77.37;35.83;;;;;;;0.65;92.78;100477.92;1393766;88;21754;-83
2021/12/30 04:03:49;;;;;;;76.73;34.40;;;;;;;0.60;93.21;100479.92;1393262;90;21484;-83
2021/12/30 04:06:17;;;;;;;74.53;34.40;;;;;;;0.51;93.99;100479.12;1393181;88;21512;-83
2021/12/30 04:08:44;;;;;;;74.57;37.10;;;;;;;0.45;94.20;100481.13;1393802;88;21569;-84
2021/12/30 04:11:12;;;;;;;83.00;38.90;;;;;;;0.48;93.78;100479.30;1393642;88;22472;-84
2021/12/30 04:13:39;;;;;;;68.23;35.90;;;;;;;0.53;93.71;100487.70;1393784;88;21683;-84
2021/12/30 04:16:06;;;;;;;72.33;33.03;;;;;;;0.57;94.46;100493.12;1393711;88;21522;-84
2021/12/30 04:18:34;;;;;;;80.60;38.40;;;;;;;0.58;94.44;100501.33;1393855;88;21607;-83
2021/12/30 04:21:01;;;;;;;74.30;33.00;;;;;;;0.62;94.36;100508.05;1373187;89;21388;-84
2021/12/30 04:23:29;;;;;;;66.67;32.50;;;;;;;0.65;93.95;100506.58;1393827;88;21455;-84
2021/12/30 04:25:56;;;;;;;67.80;34.27;;;;;;;0.69;93.92;100510.69;1372960;90;21617;-83
2021/12/30 04:28:24;;;;;;;69.27;33.37;;;;;;;0.71;93.64;100521.87;1393648;88;21617;-84
2021/12/30 04:30:51;;;;;;;61.13;31.67;;;;;;;0.70;93.73;100520.20;1373277;90;21546;-84
2021/12/30 04:33:19;;;;;;;67.10;32.63;;;;;;;0.74;93.59;100511.28;1393838;87;22867;-84
2021/12/30 04:35:47;;;;;;;68.90;33.33;;;;;;;0.81;93.68;100509.21;1393100;88;21531;-84
2021/12/30 04:38:14;;;;;;;59.43;29.37;;;;;;;0.85;93.80;100510.24;1393446;88;21521;-85
2021/12/30 04:40:41;;;;;;;55.87;27.37;;;;;;;0.86;94.14;100513.25;1392960;88;22328;-85
2021/12/30 04:43:10;;;;;;;50.63;27.07;;;;;;;0.88;93.84;100517.89;1393283;88;21579;-84
2021/12/30 04:45:38;;;;;;;59.70;30.67;;;;;;;0.88;93.68;100524.87;1393872;88;21679;-84
2021/12/30 04:48:05;;;;;;;51.33;24.47;;;;;;;0.90;93.33;100529.55;1392900;88;21470;-84
2021/12/30 04:50:33;;;;;;;54.77;27.83;;;;;;;0.96;93.45;100529.21;1393829;88;21668;-85
2021/12/30 04:53:00;;;;;;;56.77;26.50;;;;;;;0.92;93.04;100538.57;1393648;88;21545;-84
2021/12/30 04:55:27;;;;;;;59.47;29.13;;;;;;;0.88;93.45;100537.44;1393588;88;21483;-84
2021/12/30 04:57:54;;;;;;;57.03;28.73;;;;;;;0.86;93.26;100545.82;1393621;88;21564;-82
2021/12/30 05:00:22;;;;;;;56.50;28.60;;;;;;;0.87;93.33;100550.56;1357314;90;21691;-81
2021/12/30 05:05:25;;;;;;;54.53;25.93;;;;;;;0.89;93.55;100556.08;1393076;88;21698;-82
2021/12/30 05:07:53;;;;;;;54.03;27.27;;;;;;;0.89;93.64;100561.29;1393806;88;21685;-82
2021/12/30 05:10:20;;;;;;;52.77;27.97;;;;;;;0.92;93.52;100560.72;1393093;88;21504;-82
2021/12/30 05:12:47;;;;;;;50.90;25.53;;;;;;;0.92;93.52;100567.23;1393902;88;21626;-83
2021/12/30 05:15:14;;;;;;;49.83;26.47;;;;;;;0.92;93.56;100571.15;1393603;88;21543;-83
2021/12/30 05:17:43;;;;;;;56.93;26.10;;;;;;;0.90;93.39;100564.73;1387492;88;21559;-83
2021/12/30 05:20:12;;;;;;;50.37;24.07;;;;;;;0.94;93.33;100563.63;1389434;88;22444;-83
2021/12/30 05:22:45;;;;;;;48.33;27.47;;;;;;;0.96;93.62;100567.00;1408336;87;21633;-83
2021/12/30 05:25:14;;;;;;;42.63;21.83;;;;;;;1.01;93.39;100570.20;1408155;87;22606;-83
2021/12/30 05:27:42;;;;;;;49.33;26.07;;;;;;;1.06;93.66;100575.98;1408899;87;21701;-82
2021/12/30 05:30:11;;;;;;;46.30;25.63;;;;;;;1.13;93.54;100590.39;1408183;87;22502;-83
2021/12/30 05:32:40;;;;;;;49.83;24.23;;;;;;;1.19;93.44;100590.52;1408293;87;21440;-83
2021/12/30 05:35:10;;;;;;;41.40;23.00;;;;;;;1.24;93.38;100586.37;1407656;87;21411;-83
2021/12/30 05:37:38;;;;;;;47.05;23.52;;;;;;;1.27;93.08;100590.95;1408425;87;21536;-83
2021/12/30 05:40:08;;;;;;;48.33;22.47;;;;;;;1.27;92.82;100596.16;1408385;87;21366;-84
2021/12/30 05:42:36;;;;;;;45.07;24.80;;;;;;;1.19;92.17;100590.52;1408413;87;21589;-84
2021/12/30 05:45:05;;;;;;;46.20;22.97;;;;;;;1.17;91.97;100588.91;1408785;87;21534;-84
2021/12/30 05:47:33;;;;;;;47.03;24.73;;;;;;;1.18;92.26;100590.16;1410602;87;21559;-84
2021/12/30 05:50:05;;;;;;;56.93;28.13;;;;;;;1.22;92.62;100590.35;1394195;88;21471;-83
2021/12/30 05:52:37;;;;;;;50.13;24.23;;;;;;;1.26;92.58;100595.77;1407721;87;21659;-83
2021/12/30 05:55:06;;;;;;;47.80;22.33;;;;;;;1.29;92.40;100587.77;1411093;87;22936;-83
2021/12/30 05:57:33;;;;;;;49.53;23.53;;;;;;;1.26;92.09;100594.45;1410609;87;21624;-84
2021/12/30 06:00:01;;;;;;;50.33;24.13;;;;;;;1.27;92.05;100604.45;1410913;87;21462;-83
2021/12/30 06:02:28;;;;;;;55.13;27.47;;;;;;;1.28;92.07;100608.27;1411279;87;21602;-84
2021/12/30 06:04:55;;;;;;;45.97;24.77;;;;;;;1.32;92.35;100613.70;1410726;87;21521;-83
2021/12/30 06:07:22;;;;;;;54.97;25.87;;;;;;;1.29;91.82;100613.01;1422541;87;21522;-83
2021/12/30 06:09:50;;;;;;;45.97;24.80;;;;;;;1.23;91.53;100622.00;1411048;87;22989;-84
2021/12/30 06:12:17;;;;;;;46.93;24.43;;;;;;;1.20;91.75;100640.89;1410988;87;22401;-83
2021/12/30 06:14:44;;;;;;;54.53;27.20;;;;;;;1.12;91.81;100654.33;1410999;87;22575;-84
2021/12/30 06:17:13;;;;;;;53.20;27.57;;;;;;;1.10;91.72;100655.73;1411166;87;21623;-83
2021/12/30 06:19:40;;;;;;;56.27;28.13;;;;;;;1.12;92.06;100655.62;1410687;87;22644;-84
2021/12/30 06:22:07;;;;;;;63.80;29.43;;;;;;;1.18;92.31;100665.77;1410976;87;21578;-84
2021/12/30 06:24:34;;;;;;;58.57;28.67;;;;;;;1.21;92.25;100673.41;1410779;87;21680;-84
2021/12/30 06:27:01;;;;;;;64.17;30.97;;;;;;;1.21;91.93;100674.72;1411111;87;21585;-84
2021/12/30 06:29:28;;;;;;;60.30;29.23;;;;;;;1.24;92.15;100682.38;1410739;87;22562;-84
2021/12/30 06:31:56;;;;;;;69.00;32.17;;;;;;;1.25;92.05;100690.56;1410837;87;22447;-84
2021/12/30 06:34:23;;;;;;;85.67;42.93;;;;;;;1.24;92.02;100700.63;1410898;87;21602;-84
2021/12/30 06:36:50;;;;;;;97.20;45.90;;;;;;;1.27;92.21;100701.77;1410709;87;21589;-83
2021/12/30 06:39:17;;;;;;;86.03;40.40;;;;;;;1.30;92.27;100705.52;1410655;87;21651;-82
2021/12/30 06:41:44;;;;;;;70.30;33.27;;;;;;;1.33;92.20;100697.52;1411407;87;21595;-82
2021/12/30 06:44:11;;;;;;;72.33;37.13;;;;;;;1.35;92.08;100698.30;1410984;87;21587;-82
2021/12/30 06:46:39;;;;;;;75.80;36.43;;;;;;;1.38;91.98;100693.81;1412212;87;22415;-81
2021/12/30 06:49:09;;;;;;;74.87;35.67;;;;;;;1.41;92.07;100693.65;1410584;87;21480;-82
2021/12/30 06:51:35;;;;;;;71.00;35.03;;;;;;;1.42;92.00;100696.66;1392356;88;21601;-83
2021/12/30 06:54:04;;;;;;;63.60;34.17;;;;;;;1.46;91.93;100703.38;1429455;86;21467;-82
2021/12/30 06:56:33;;;;;;;67.67;36.73;;;;;;;1.46;91.69;100704.22;1427797;86;22506;-82
2021/12/30 06:59:00;;;;;;;72.33;37.57;;;;;;;1.48;91.50;100697.63;1409798;86;21474;-83
2021/12/30 07:01:31;;;;;;;70.53;36.77;;;;;;;1.48;91.38;100690.64;1427183;86;21610;-83
2021/12/30 07:03:58;;;;;;;69.87;38.02;;;;;;;1.45;91.14;100699.09;1428219;86;21799;-83
2021/12/30 07:06:25;;;;;;;67.27;34.60;;;;;;;1.44;91.13;100703.48;1426844;86;21380;-83
2021/12/30 07:08:52;;;;;;;72.20;36.60;;;;;;;1.46;91.23;100709.91;1428471;86;21554;-82
2021/12/30 07:11:19;;;;;;;87.17;42.07;;;;;;;1.51;91.32;100707.89;1409048;87;21528;-85
2021/12/30 07:13:46;;;;;;;76.40;39.50;;;;;;;1.54;91.34;100709.03;1395265;88;21602;-84
2021/12/30 07:16:14;;;;;;;81.10;42.30;;;;;;;1.60;91.39;100711.30;1412615;87;21659;-84
2021/12/30 07:18:41;;;;;;;78.20;38.57;;;;;;;1.61;91.13;100713.45;1408814;87;21685;-84
2021/12/30 07:21:08;;;;;;;69.73;36.43;;;;;;;1.56;90.47;100730.20;1414247;87;21775;-84
2021/12/30 07:23:35;;;;;;;69.80;34.50;;;;;;;1.47;90.02;100734.61;1388219;88;22449;-84
2021/12/30 07:26:02;;;;;;;69.00;37.53;;;;;;;1.46;90.30;100732.07;1411866;87;21668;-82
2021/12/30 07:28:29;;;;;;;62.97;31.53;;;;;;;1.42;90.64;100746.22;1429876;85;21550;-83
2021/12/30 07:30:56;;;;;;;58.80;30.00;;;;;;;1.43;90.92;100758.32;1408837;87;21483;-83
2021/12/30 07:33:23;;;;;;;60.97;32.10;;;;;;;1.41;91.06;100766.67;1392690;88;21704;-83
2021/12/30 07:35:50;;;;;;;60.90;30.73;;;;;;;1.40;90.99;100768.45;1420884;86;21572;-83
2021/12/30 07:38:18;;;;;;;59.40;30.87;;;;;;;1.41;91.04;100766.67;1420985;86;21628;-83
2021/12/30 07:40:45;;;;;;;54.80;29.30;;;;;;;1.45;91.13;100770.83;1390090;86;21753;-83
2021/12/30 07:43:12;;;;;;;60.63;30.47;;;;;;;1.43;91.09;100777.88;1370382;90;21685;-83
2021/12/30 07:45:39;;;;;;;61.40;30.50;;;;;;;1.48;91.23;100785.02;1388878;88;21634;-83
2021/12/30 07:48:07;;;;;;;62.07;33.10;;;;;;;1.48;91.23;100785.02;1390510;88;21650;-82
2021/12/30 07:50:34;;;;;;;64.90;32.33;;;;;;;1.51;91.17;100807.02;1405213;87;21777;-83
2021/12/30 07:53:01;;;;;;;62.17;32.47;;;;;;;1.53;91.24;100821.67;1404392;87;21771;-82
2021/12/30 07:55:28;;;;;;;56.20;30.37;;;;;;;1.60;91.22;100832.63;1405591;87;21646;-83
2021/12/30 07:57:57;;;;;;;56.17;27.23;;;;;;;1.60;91.22;100832.63;1410935;87;21755;-82
2021/12/30 08:00:25;;;;;;;58.70;29.73;;;;;;;1.60;91.29;100832.63;1410691;87;21720;-85
2021/12/30 08:02:53;;;;;;;49.13;27.70;;;;;;;1.60;91.29;100832.63;1411035;87;21652;-86
2021/12/30 08:05:21;;;;;;;45.37;25.70;;;;;;;1.60;91.03;100826.09;1410993;87;21711;-85
2021/12/30 08:07:48;;;;;;;40.13;21.07;;;;;;;1.56;90.80;100838.47;1411008;87;21675;-85
2021/12/30 08:10:18;;;;;;;41.50;22.10;;;;;;;1.56;90.80;100838.47;1405024;87;22283;-86
2021/12/30 08:12:47;;;;;;;37.63;19.80;;;;;;;1.58;91.04;100825.33;1403723;87;21818;-85
2021/12/30 08:15:16;;;;;;;39.47;20.50;;;;;;;1.61;90.78;100816.50;1386703;89;21933;-86
2021/12/30 08:17:45;;;;;;;33.87;19.50;;;;;;;1.61;90.87;100817.34;1404652;87;22653;-86
2021/12/30 08:20:15;;;;;;;38.47;22.73;;;;;;;1.60;90.87;100814.36;1409077;87;23046;-86
2021/12/30 08:22:43;;;;;;;38.47;23.00;;;;;;;1.67;91.16;100814.43;1410874;87;21792;-86
2021/12/30 08:25:12;;;;;;;46.50;27.40;;;;;;;1.69;90.96;100820.86;1406267;87;21701;-86
2021/12/30 08:27:40;;;;;;;57.77;29.30;;;;;;;1.69;90.96;100820.86;1404457;87;22765;-87
2021/12/30 08:30:15;;;;;;;44.40;24.53;;;;;;;1.80;91.34;100815.45;1408690;87;21546;-86
2021/12/30 08:32:43;;;;;;;49.63;26.97;;;;;;;1.91;91.05;100812.73;1410693;87;21751;-87
2021/12/30 08:35:13;;;;;;;48.47;26.77;;;;;;;1.91;91.05;100812.73;1410902;87;21610;-87
2021/12/30 08:37:41;;;;;;;52.75;26.93;;;;;;;1.94;90.44;100815.18;1410784;87;21767;-87
2021/12/30 08:40:12;;;;;;;56.27;29.70;;;;;;;2.00;90.50;100818.77;1410738;87;21321;-87
2021/12/30 08:42:39;;;;;;;;;;;;;;;2.00;90.50;100818.77;1393881;88;21730;-87
2021/12/30 08:45:08;;;;;;;54.80;29.23;;;;;;;2.02;90.27;100816.92;1391264;88;20262;-88
2021/12/30 08:47:36;;;;;;;58.30;30.50;;;;;;;2.09;90.41;100818.72;1395926;87;22714;-87
2021/12/30 08:50:07;;;;;;;64.13;33.70;;;;;;;2.16;90.38;100822.70;1409529;87;21696;-88
2021/12/30 08:52:35;;;;;;;58.63;30.23;;;;;;;2.17;89.74;100824.38;1391726;89;22692;-87
2021/12/30 08:55:04;;;;;;;62.07;32.40;;;;;;;2.09;89.23;100818.25;1392073;89;22731;-87
2021/12/30 08:57:33;;;;;;;51.57;28.00;;;;;;;2.09;89.22;100814.80;1409677;87;21754;-87
2021/12/30 09:00:02;;;;;;;55.97;27.33;;;;;;;2.08;88.87;100829.63;1409986;87;21773;-87
2021/12/30 09:02:29;;;;;;;61.77;31.90;;;;;;;2.08;88.87;100829.63;1409656;87;21989;-87
2021/12/30 09:04:56;;;;;;;59.37;29.83;;;;;;;2.00;88.63;100827.89;1409917;87;21795;-87
2021/12/30 09:07:23;;;;;;;63.77;32.47;;;;;;;2.00;88.63;100827.89;1409710;87;22891;-87
2021/12/30 09:09:50;;;;;;;66.00;32.87;;;;;;;1.97;88.44;100845.03;1392197;88;21855;-86
2021/12/30 09:12:18;;;;;;;80.70;39.13;;;;;;;1.98;88.81;100844.09;1425725;87;21920;-86
2021/12/30 09:14:45;;;;;;;70.43;37.37;;;;;;;1.98;88.81;100844.09;1428303;86;21728;-87
2021/12/30 09:17:13;;;;;;;60.77;31.80;;;;;;;1.99;89.01;100845.80;1423572;86;21791;-87
2021/12/30 09:19:40;;;;;;;57.73;31.93;;;;;;;1.99;89.01;100845.80;1423249;86;23126;-86
2021/12/30 09:22:07;;;;;;;53.90;27.13;;;;;;;1.92;88.87;100847.04;1422483;86;21766;-88
2021/12/30 09:24:34;;;;;;;50.97;27.57;;;;;;;1.92;88.87;100847.04;1427251;86;21838;-85
2021/12/30 09:27:02;;;;;;;46.67;27.73;;;;;;;1.88;89.07;100850.75;1423660;86;21876;-85
2021/12/30 09:29:29;;;;;;;49.73;26.37;;;;;;;1.87;89.67;100836.00;1427188;86;21625;-81
2021/12/30 09:31:58;;;;;;;50.13;26.90;;;;;;;1.88;90.16;100835.09;1429644;86;21741;-83
2021/12/30 09:34:26;;;;;;;47.60;25.43;;;;;;;1.85;89.56;100828.73;1429737;86;21639;-82
2021/12/30 09:36:53;;;;;;;44.37;24.53;;;;;;;1.85;89.56;100828.73;1429055;86;21656;-82
2021/12/30 09:39:20;;;;;;;48.97;25.40;;;;;;;1.90;90.67;100830.61;1429839;86;22919;-82
2021/12/30 09:41:48;;;;;;;56.93;27.13;;;;;;;2.02;89.87;100837.80;1429801;86;22647;-82
2021/12/30 09:44:18;;;;;;;52.77;26.70;;;;;;;2.01;89.96;100833.48;1429492;86;21736;-82
2021/12/30 09:46:46;;;;;;;47.83;25.95;;;;;;;2.01;89.96;100833.48;1423803;86;21743;-82
2021/12/30 09:49:18;;;;;;;53.57;28.07;;;;;;;1.96;89.11;100830.31;1427443;86;21483;-88
2021/12/30 09:51:45;;;;;;;53.60;28.30;;;;;;;1.96;89.11;100830.31;1409252;87;22175;-87
2021/12/30 09:54:13;;;;;;;54.07;27.03;;;;;;;1.98;88.83;100831.05;1419411;86;21764;-88
2021/12/30 09:56:41;;;;;;;50.13;27.53;;;;;;;2.00;88.82;100818.77;1422366;87;22115;-87
2021/12/30 09:59:11;;;;;;;56.33;29.23;;;;;;;2.06;88.99;100828.86;1419111;86;22979;-88
2021/12/30 10:01:44;;;;;;;57.03;29.33;;;;;;;2.06;88.99;100828.86;1409793;87;21951;-87
2021/12/30 10:04:36;;;;;;;59.17;32.43;;;;;;;2.11;89.08;100831.23;1420125;87;23247;-86
2021/12/30 10:07:19;;;;;;;55.67;29.10;;;;;;;2.14;89.03;100826.69;1403382;87;22964;-88
2021/12/30 10:10:01;;;;;;;52.00;28.23;;;;;;;2.21;88.95;100830.63;1418068;89;21859;-87
2021/12/30 10:12:39;;;;;;;53.27;26.87;;;;;;;2.21;88.95;100830.63;1419463;85;22062;-87
2021/12/30 10:15:08;;;;;;;48.55;25.55;;;;;;;2.26;88.74;100835.61;1413896;87;22074;-84
2021/12/30 10:17:58;;;;;;;49.00;25.43;;;;;;;2.26;88.57;100844.75;1415780;87;21354;-89
2021/12/30 10:20:32;;;;;;;41.13;22.43;;;;;;;2.26;88.37;100859.95;1417341;85;22034;-93
2021/12/30 10:23:16;;;;;;;45.70;24.00;;;;;;;2.23;88.34;100857.52;1412239;86;21943;-91
2021/12/30 10:25:51;;;;;;;44.87;23.73;;;;;;;2.26;88.66;100858.65;1417669;86;22009;-91
2021/12/30 10:28:36;;;;;;;42.27;23.03;;;;;;;2.31;88.67;100858.88;1395750;87;22226;-92
2021/12/30 10:31:18;;;;;;;42.67;23.87;;;;;;;2.36;88.63;100865.98;1400810;88;23090;-91
2021/12/30 10:34:05;;;;;;;47.40;26.23;;;;;;;2.36;88.36;100859.45;1404951;87;21990;-93
2021/12/30 10:36:48;;;;;;;41.13;22.87;;;;;;;2.30;88.19;100857.17;1388278;88;22018;-92
2021/12/30 10:39:31;;;;;;;47.30;24.27;;;;;;;2.29;88.27;100867.25;1380249;89;22017;-93
2021/12/30 10:42:20;;;;;;;42.17;22.97;;;;;;;2.29;88.27;100867.25;1402384;88;22021;-95
2021/12/30 10:45:05;;;;;;;41.03;21.20;;;;;;;2.35;88.51;100878.67;1401559;87;22001;-92
2021/12/30 10:47:55;;;;;;;48.07;25.73;;;;;;;2.30;87.80;100880.69;1402040;88;21826;-92
2021/12/30 10:50:24;;;;;;;51.27;26.93;;;;;;;2.30;87.80;100880.69;1401788;88;22100;-92
2021/12/30 10:52:55;;;;;;;49.17;27.10;;;;;;;2.28;88.03;100872.34;1404712;88;22703;-93
2021/12/30 10:55:25;;;;;;;45.75;23.92;;;;;;;2.23;87.97;100872.34;1380997;90;21959;-92
2021/12/30 10:57:53;;;;;;;42.63;21.87;;;;;;;2.21;87.83;100852.83;1403141;87;21330;-93
2021/12/30 11:00:30;;;;;;;46.13;22.70;;;;;;;2.21;87.83;100852.83;1409099;86;21906;-94
2021/12/30 11:03:27;;;;;;;46.27;24.67;;;;;;;2.11;87.58;100847.74;1414216;86;23018;-91
2021/12/30 11:06:20;;;;;;;45.00;22.97;;;;;;;2.11;87.58;100847.74;1417391;86;22134;-92
2021/12/30 11:08:49;;;;;;;48.13;22.90;;;;;;;1.95;88.13;100836.43;1412536;87;22611;-92
2021/12/30 11:11:27;;;;;;;41.90;22.37;;;;;;;1.99;88.73;100849.72;1417575;86;21861;-91
2021/12/30 11:14:14;;;;;;;56.03;27.10;;;;;;;1.99;88.73;100849.72;1414803;87;22735;-93
2021/12/30 11:17:21;;;;;;;57.27;26.97;;;;;;;1.98;88.68;100852.77;1414395;87;21930;-91
2021/12/30 11:19:52;;;;;;;52.53;24.93;;;;;;;1.93;89.08;100844.36;1413166;86;21794;-91
2021/12/30 11:22:24;;;;;;;49.37;25.97;;;;;;;1.89;88.56;100838.07;1413918;87;22107;-93
2021/12/30 11:24:56;;;;;;;53.60;26.27;;;;;;;1.94;89.23;100844.73;1417051;86;21966;-92
2021/12/30 11:27:26;;;;;;;49.17;25.07;;;;;;;2.00;89.26;100844.40;1411224;88;21747;-92
2021/12/30 11:29:58;;;;;;;49.38;26.17;;;;;;;2.00;89.26;100844.40;1413998;87;22652;-93